Time;durP1;ratioP1;P1;durP2;ratioP2;P2;SDS_P1;SDS_P2;PMS_P1;PMS_P2;Temp;Humidity;BMP_temperature;BMP_pressure;BME280_temperature;BME280_humidity;BME280_pressure;Samples;Min_cycle;Max_cycle;Signal;HPM_P1;HPM_P2
2022/11/14 00:01:17;;;;;;;38.58;19.17;;;;;;;;;;5092254;28;20052;-77
2022/11/14 00:03:43;;;;;;;47.17;19.55;;;;;;;;;;5091103;28;20052;-76
2022/11/14 00:06:10;;;;;;;34.83;18.10;;;;;;;;;;5092462;28;20043;-79
2022/11/14 00:08:37;;;;;;;39.83;18.95;;;;;;;;;;5090848;28;20419;-78
2022/11/14 00:11:03;;;;;;;39.55;19.08;;;;;;;;;;5090084;28;20136;-79
2022/11/14 00:13:29;;;;;;;37.00;18.52;;;;;;;;;;5089902;28;20058;-79
2022/11/14 00:15:56;;;;;;;38.47;19.50;;;;;;;;;;5091645;28;20044;-78
2022/11/14 00:18:22;;;;;;;36.00;17.83;;;;;;;;;;5072657;28;20044;-78
2022/11/14 00:20:50;;;;;;;34.28;17.85;;;;;;;;;;5090709;28;20226;-76
2022/11/14 00:23:16;;;;;;;36.08;17.92;;;;;;;;;;5089232;28;20064;-77
2022/11/14 00:25:44;;;;;;;36.03;17.65;;;;;;;;;;5090917;28;20048;-78
2022/11/14 00:28:10;;;;;;;38.42;18.10;;;;;;;;;;5071166;28;20161;-78
2022/11/14 00:30:36;;;;;;;41.35;17.75;;;;;;;;;;5089899;28;20044;-79
2022/11/14 00:33:03;;;;;;;41.58;18.92;;;;;;;;;;5090670;28;20075;-78
2022/11/14 00:35:29;;;;;;;34.60;17.58;;;;;;;;;;5090932;28;20071;-78
2022/11/14 00:37:56;;;;;;;33.15;16.65;;;;;;;;;;5090454;28;20044;-77
2022/11/14 00:40:22;;;;;;;34.42;16.77;;;;;;;;;;5091422;28;20534;-77
2022/11/14 00:42:48;;;;;;;34.55;16.83;;;;;;;;;;5089307;28;20051;-77
2022/11/14 00:45:15;;;;;;;33.92;16.40;;;;;;;;;;5089638;28;20044;-77
2022/11/14 00:47:41;;;;;;;34.08;16.55;;;;;;;;;;5094457;28;20046;-77
2022/11/14 00:50:08;;;;;;;36.20;17.27;;;;;;;;;;5096841;28;20095;-77
2022/11/14 00:52:35;;;;;;;33.88;16.45;;;;;;;;;;5116178;28;20100;-77
2022/11/14 00:55:01;;;;;;;34.25;16.38;;;;;;;;;;5105813;28;20131;-78
2022/11/14 00:57:28;;;;;;;33.28;16.55;;;;;;;;;;5090512;28;20051;-77
2022/11/14 00:59:54;;;;;;;32.17;16.80;;;;;;;;;;5090259;28;20441;-78
2022/11/14 01:02:21;;;;;;;32.28;15.93;;;;;;;;;;5109403;28;20047;-79
2022/11/14 01:04:48;;;;;;;37.50;17.08;;;;;;;;;;5094149;28;20044;-78
2022/11/14 01:07:14;;;;;;;31.67;15.70;;;;;;;;;;5090574;28;20131;-78
2022/11/14 01:09:41;;;;;;;35.70;16.55;;;;;;;;;;5090144;28;20135;-77
2022/11/14 01:12:07;;;;;;;32.03;16.00;;;;;;;;;;5087086;28;20060;-78
2022/11/14 01:14:33;;;;;;;31.20;16.65;;;;;;;;;;5089007;28;20044;-78
2022/11/14 01:17:00;;;;;;;31.70;16.00;;;;;;;;;;5091178;28;20052;-78
2022/11/14 01:19:26;;;;;;;30.52;14.85;;;;;;;;;;5090071;28;20085;-78
2022/11/14 01:21:53;;;;;;;34.85;16.52;;;;;;;;;;5071565;28;20047;-78
2022/11/14 01:24:19;;;;;;;31.90;15.88;;;;;;;;;;5089133;28;20055;-77
2022/11/14 01:26:45;;;;;;;33.63;16.55;;;;;;;;;;5089480;28;20044;-78
2022/11/14 01:29:12;;;;;;;33.78;16.23;;;;;;;;;;5071425;28;20181;-78
2022/11/14 01:31:38;;;;;;;35.40;16.55;;;;;;;;;;5090055;28;20054;-78
2022/11/14 01:34:05;;;;;;;33.08;16.60;;;;;;;;;;5088689;28;20048;-78
2022/11/14 01:36:31;;;;;;;33.63;16.55;;;;;;;;;;5091235;28;20055;-78
2022/11/14 01:38:57;;;;;;;33.50;15.98;;;;;;;;;;5089502;28;20055;-77
2022/11/14 01:41:24;;;;;;;34.72;16.52;;;;;;;;;;5090824;28;20056;-76
2022/11/14 01:43:50;;;;;;;35.05;15.75;;;;;;;;;;5073032;28;20048;-77
2022/11/14 01:46:29;;;;;;;30.90;16.27;;;;;;;;;;5090641;28;20044;-77
2022/11/14 01:48:55;;;;;;;32.33;15.85;;;;;;;;;;5070557;28;20051;-79
2022/11/14 01:51:22;;;;;;;32.22;16.30;;;;;;;;;;5090247;28;20044;-77
2022/11/14 01:53:50;;;;;;;32.17;15.20;;;;;;;;;;5087753;28;20093;-80
2022/11/14 01:56:18;;;;;;;30.52;15.25;;;;;;;;;;5090810;28;20488;-78
2022/11/14 01:58:47;;;;;;;30.58;15.05;;;;;;;;;;5089314;28;20066;-78
2022/11/14 02:01:14;;;;;;;32.67;15.77;;;;;;;;;;5090790;28;20050;-78
2022/11/14 02:03:43;;;;;;;33.70;14.52;;;;;;;;;;5070202;28;20059;-77
2022/11/14 02:06:11;;;;;;;29.98;15.25;;;;;;;;;;5090267;28;20204;-78
2022/11/14 02:08:38;;;;;;;31.65;14.90;;;;;;;;;;5089281;28;20058;-78
2022/11/14 02:11:05;;;;;;;27.65;15.35;;;;;;;;;;5088018;28;20060;-78
2022/11/14 02:13:31;;;;;;;32.03;15.40;;;;;;;;;;5087632;28;20082;-75
2022/11/14 02:15:57;;;;;;;31.10;14.70;;;;;;;;;;5089917;28;20050;-77
2022/11/14 02:18:24;;;;;;;30.45;15.05;;;;;;;;;;5089821;28;20048;-75
2022/11/14 02:20:50;;;;;;;28.65;14.80;;;;;;;;;;5089258;28;20079;-77
2022/11/14 02:23:24;;;;;;;32.97;15.80;;;;;;;;;;5089635;28;20543;-79
2022/11/14 02:25:51;;;;;;;34.65;15.88;;;;;;;;;;5091033;28;20048;-78
2022/11/14 02:28:19;;;;;;;31.95;15.02;;;;;;;;;;5089282;28;20047;-77
2022/11/14 02:30:46;;;;;;;31.30;15.68;;;;;;;;;;5090204;28;20139;-78
2022/11/14 02:33:13;;;;;;;30.25;15.30;;;;;;;;;;5090214;28;20364;-78
2022/11/14 02:35:39;;;;;;;32.65;15.43;;;;;;;;;;5092898;28;20589;-78
2022/11/14 02:38:06;;;;;;;29.42;14.88;;;;;;;;;;5093441;28;20131;-78
2022/11/14 02:40:32;;;;;;;33.30;15.98;;;;;;;;;;5092248;28;20052;-78
2022/11/14 02:42:58;;;;;;;29.05;14.98;;;;;;;;;;5088204;28;20395;-78
2022/11/14 02:45:26;;;;;;;27.92;13.98;;;;;;;;;;5090836;28;20048;-78
2022/11/14 02:47:52;;;;;;;26.55;14.15;;;;;;;;;;5091202;28;20063;-77
2022/11/14 02:50:18;;;;;;;30.70;14.95;;;;;;;;;;5089899;28;20488;-78
2022/11/14 02:52:45;;;;;;;33.35;15.93;;;;;;;;;;5089785;28;20067;-78
2022/11/14 02:55:11;;;;;;;29.60;14.73;;;;;;;;;;5092463;28;20048;-78
2022/11/14 02:57:38;;;;;;;28.92;13.82;;;;;;;;;;5090625;28;20044;-79
2022/11/14 03:00:04;;;;;;;29.60;15.02;;;;;;;;;;5090628;28;20058;-78
2022/11/14 03:02:38;;;;;;;29.27;14.07;;;;;;;;;;5091793;28;20545;-77
2022/11/14 03:05:05;;;;;;;29.55;14.23;;;;;;;;;;5091849;28;20058;-77
2022/11/14 03:07:31;;;;;;;30.27;13.80;;;;;;;;;;5092478;28;20058;-77
2022/11/14 03:09:58;;;;;;;31.45;14.98;;;;;;;;;;5091845;28;20143;-76
2022/11/14 03:12:24;;;;;;;31.85;14.52;;;;;;;;;;5091504;28;21001;-78
2022/11/14 03:14:51;;;;;;;27.67;13.48;;;;;;;;;;5094559;28;20062;-78
2022/11/14 03:17:17;;;;;;;25.65;13.23;;;;;;;;;;5076779;28;20055;-77
2022/11/14 03:19:43;;;;;;;28.83;13.40;;;;;;;;;;5092099;28;20048;-77
2022/11/14 03:22:10;;;;;;;27.85;13.98;;;;;;;;;;5092579;28;20048;-78
2022/11/14 03:24:36;;;;;;;25.27;12.85;;;;;;;;;;5090999;28;20074;-76
2022/11/14 03:27:03;;;;;;;28.08;12.85;;;;;;;;;;5095976;28;20103;-78
2022/11/14 03:29:29;;;;;;;26.92;12.77;;;;;;;;;;5082697;28;20098;-78
2022/11/14 03:31:56;;;;;;;25.08;13.02;;;;;;;;;;5084180;28;20376;-78
2022/11/14 03:34:22;;;;;;;26.42;13.05;;;;;;;;;;5096744;28;20129;-77
2022/11/14 03:36:49;;;;;;;26.27;13.45;;;;;;;;;;5093968;28;20050;-77
2022/11/14 03:39:15;;;;;;;25.17;13.48;;;;;;;;;;5093013;28;20077;-77
2022/11/14 03:41:42;;;;;;;26.75;13.35;;;;;;;;;;5093424;28;20052;-79
2022/11/14 03:44:08;;;;;;;21.92;12.80;;;;;;;;;;5072577;28;20048;-78
2022/11/14 03:46:34;;;;;;;28.77;13.43;;;;;;;;;;5093350;28;20054;-77
2022/11/14 03:49:01;;;;;;;32.10;13.95;;;;;;;;;;5092675;28;20565;-77
2022/11/14 03:51:27;;;;;;;28.15;14.05;;;;;;;;;;5091690;28;20048;-79
2022/11/14 03:53:53;;;;;;;24.25;12.93;;;;;;;;;;5090204;28;20497;-77
2022/11/14 03:56:20;;;;;;;26.13;13.48;;;;;;;;;;5090657;28;20495;-77
2022/11/14 03:58:46;;;;;;;28.42;13.75;;;;;;;;;;5090191;28;20062;-77
2022/11/14 04:01:13;;;;;;;30.08;14.27;;;;;;;;;;5092742;28;20052;-79
2022/11/14 04:03:39;;;;;;;26.45;13.80;;;;;;;;;;5092238;28;20465;-78
2022/11/14 04:06:06;;;;;;;26.92;14.20;;;;;;;;;;5091672;28;20496;-77
2022/11/14 04:08:32;;;;;;;26.92;14.25;;;;;;;;;;5091221;28;20131;-78
2022/11/14 04:10:59;;;;;;;27.92;13.95;;;;;;;;;;5091795;28;20052;-78
2022/11/14 04:13:25;;;;;;;28.15;13.98;;;;;;;;;;5091989;28;20048;-77
2022/11/14 04:15:55;;;;;;;32.63;14.88;;;;;;;;;;5091776;28;20058;-76
2022/11/14 04:18:22;;;;;;;29.58;14.13;;;;;;;;;;5091899;28;20052;-78
2022/11/14 04:20:49;;;;;;;29.08;15.70;;;;;;;;;;5092626;28;20048;-78
2022/11/14 04:23:15;;;;;;;29.48;15.18;;;;;;;;;;5108518;28;20095;-79
2022/11/14 04:25:42;;;;;;;28.42;14.75;;;;;;;;;;5099458;28;20107;-78
2022/11/14 04:28:09;;;;;;;34.20;15.23;;;;;;;;;;5115915;28;20064;-77
2022/11/14 04:30:36;;;;;;;30.67;14.98;;;;;;;;;;5095911;28;20051;-78
2022/11/14 04:33:02;;;;;;;29.08;14.30;;;;;;;;;;5092652;28;20171;-79
2022/11/14 04:35:29;;;;;;;31.15;15.02;;;;;;;;;;5092272;28;20048;-78
2022/11/14 04:37:55;;;;;;;28.83;15.68;;;;;;;;;;5075242;28;20052;-75
2022/11/14 04:40:21;;;;;;;30.45;15.25;;;;;;;;;;5092560;28;20044;-75
2022/11/14 04:42:48;;;;;;;28.02;14.63;;;;;;;;;;5091423;28;20075;-75
2022/11/14 04:45:14;;;;;;;33.75;16.45;;;;;;;;;;5093567;28;20064;-75
2022/11/14 04:47:41;;;;;;;31.38;16.35;;;;;;;;;;5093403;28;20101;-78
2022/11/14 04:50:08;;;;;;;32.70;16.30;;;;;;;;;;5094244;28;20044;-78
2022/11/14 04:52:34;;;;;;;30.83;15.80;;;;;;;;;;5093021;28;20288;-77
2022/11/14 04:55:01;;;;;;;33.83;16.90;;;;;;;;;;5096040;28;20059;-77
2022/11/14 04:57:27;;;;;;;34.75;17.08;;;;;;;;;;5095802;28;20150;-77
2022/11/14 04:59:54;;;;;;;36.90;17.48;;;;;;;;;;5094883;28;20464;-76
2022/11/14 05:02:20;;;;;;;34.90;17.10;;;;;;;;;;5090935;28;20247;-77
2022/11/14 05:04:47;;;;;;;36.95;17.67;;;;;;;;;;5091606;28;20079;-77
2022/11/14 05:07:13;;;;;;;38.95;18.55;;;;;;;;;;5093295;28;20083;-78
2022/11/14 05:09:40;;;;;;;37.22;18.00;;;;;;;;;;5091621;28;20048;-77
2022/11/14 05:12:06;;;;;;;33.53;17.35;;;;;;;;;;5088644;28;20315;-78
2022/11/14 05:14:33;;;;;;;36.95;17.92;;;;;;;;;;5090847;28;20044;-78
2022/11/14 05:16:59;;;;;;;35.53;18.50;;;;;;;;;;5091803;28;20052;-78
2022/11/14 05:19:26;;;;;;;36.67;18.67;;;;;;;;;;5089957;28;20097;-78
2022/11/14 05:21:52;;;;;;;35.58;18.75;;;;;;;;;;5090364;28;20278;-78
2022/11/14 05:24:18;;;;;;;39.53;19.33;;;;;;;;;;5088521;28;20547;-76
2022/11/14 05:26:45;;;;;;;35.13;18.80;;;;;;;;;;5089370;28;20056;-75
2022/11/14 05:29:11;;;;;;;35.30;18.60;;;;;;;;;;5071600;28;20047;-78
2022/11/14 05:31:38;;;;;;;37.30;18.08;;;;;;;;;;5091540;28;20047;-78
2022/11/14 05:34:04;;;;;;;40.40;19.45;;;;;;;;;;5088248;28;20044;-75
2022/11/14 05:36:30;;;;;;;36.75;18.70;;;;;;;;;;5090128;28;20059;-75
2022/11/14 05:38:57;;;;;;;38.45;18.75;;;;;;;;;;5088590;28;20147;-76
2022/11/14 05:41:23;;;;;;;35.92;18.90;;;;;;;;;;5088970;28;20048;-74
2022/11/14 05:43:50;;;;;;;39.17;19.67;;;;;;;;;;5086676;28;20052;-75
2022/11/14 05:46:16;;;;;;;35.58;19.38;;;;;;;;;;5070757;28;20044;-75
2022/11/14 05:48:42;;;;;;;38.38;19.23;;;;;;;;;;5070508;28;20346;-74
2022/11/14 05:51:10;;;;;;;38.63;19.17;;;;;;;;;;5089727;28;20048;-75
2022/11/14 05:53:45;;;;;;;37.05;19.40;;;;;;;;;;5087340;28;20419;-74
2022/11/14 05:56:14;;;;;;;39.72;19.75;;;;;;;;;;5092528;28;20146;-74
2022/11/14 05:58:41;;;;;;;37.72;18.88;;;;;;;;;;5089962;28;20071;-73
2022/11/14 06:01:08;;;;;;;38.15;18.98;;;;;;;;;;5096237;28;20143;-77
2022/11/14 06:03:36;;;;;;;38.78;19.23;;;;;;;;;;5092884;28;20071;-76
2022/11/14 06:06:04;;;;;;;40.63;20.10;;;;;;;;;;5088867;28;20047;-76
2022/11/14 06:08:30;;;;;;;37.20;18.85;;;;;;;;;;5087645;28;20048;-76
2022/11/14 06:11:02;;;;;;;37.45;19.02;;;;;;;;;;5086827;28;20412;-76
2022/11/14 06:13:29;;;;;;;42.00;20.30;;;;;;;;;;5086753;28;20056;-78
2022/11/14 06:16:14;;;;;;;37.78;19.95;;;;;;;;;;5088881;28;20123;-77
2022/11/14 06:18:41;;;;;;;38.70;19.98;;;;;;;;;;5088671;28;20119;-76
2022/11/14 06:21:10;;;;;;;37.65;19.05;;;;;;;;;;5088706;28;20052;-76
2022/11/14 06:23:37;;;;;;;38.55;18.33;;;;;;;;;;5087560;28;20047;-77
2022/11/14 06:26:04;;;;;;;40.35;19.52;;;;;;;;;;5088772;28;20044;-77
2022/11/14 06:28:31;;;;;;;34.63;18.15;;;;;;;;;;5069590;28;20411;-76
2022/11/14 06:30:58;;;;;;;37.83;18.48;;;;;;;;;;5089119;28;20109;-77
2022/11/14 06:33:25;;;;;;;40.40;18.77;;;;;;;;;;5087165;28;20131;-77
2022/11/14 06:35:58;;;;;;;39.35;19.05;;;;;;;;;;5089613;28;20055;-77
2022/11/14 06:38:24;;;;;;;40.60;20.08;;;;;;;;;;5081536;28;20060;-77
2022/11/14 06:40:51;;;;;;;36.30;18.88;;;;;;;;;;5086843;28;20070;-78
2022/11/14 06:43:17;;;;;;;36.25;18.30;;;;;;;;;;5089166;28;20477;-77
2022/11/14 06:45:44;;;;;;;37.30;19.42;;;;;;;;;;5093460;28;20127;-77
2022/11/14 06:48:10;;;;;;;37.33;18.40;;;;;;;;;;5071669;28;20058;-74
2022/11/14 06:50:37;;;;;;;39.55;19.15;;;;;;;;;;5077525;28;20358;-77
2022/11/14 06:53:03;;;;;;;40.83;18.80;;;;;;;;;;5089711;28;20040;-79
2022/11/14 06:55:29;;;;;;;38.53;18.75;;;;;;;;;;5105047;28;20413;-78
2022/11/14 06:57:56;;;;;;;34.55;18.25;;;;;;;;;;5080399;28;20055;-75
2022/11/14 07:00:22;;;;;;;35.65;18.67;;;;;;;;;;5090332;28;20052;-79
2022/11/14 07:02:49;;;;;;;38.55;18.85;;;;;;;;;;5088279;28;20059;-80
2022/11/14 07:05:15;;;;;;;35.60;19.05;;;;;;;;;;5089910;28;20055;-77
2022/11/14 07:07:41;;;;;;;38.75;18.52;;;;;;;;;;5059416;28;20512;-79
2022/11/14 07:10:08;;;;;;;37.72;18.33;;;;;;;;;;5070698;28;20049;-78
2022/11/14 07:12:35;;;;;;;36.10;18.27;;;;;;;;;;5077017;28;20062;-79
2022/11/14 07:15:04;;;;;;;34.80;17.33;;;;;;;;;;5069948;28;20213;-80
2022/11/14 07:17:33;;;;;;;37.92;18.15;;;;;;;;;;5094193;28;20059;-78
2022/11/14 07:19:59;;;;;;;34.42;16.90;;;;;;;;;;5086542;28;20051;-79
2022/11/14 07:22:25;;;;;;;34.90;17.00;;;;;;;;;;5101753;28;20051;-78
2022/11/14 07:24:52;;;;;;;37.45;17.60;;;;;;;;;;5104035;28;20054;-78
2022/11/14 07:27:18;;;;;;;36.42;17.83;;;;;;;;;;5083828;28;20070;-79
2022/11/14 07:29:44;;;;;;;31.35;15.95;;;;;;;;;;5104533;28;20044;-79
2022/11/14 07:32:11;;;;;;;30.88;16.55;;;;;;;;;;5103100;28;20048;-78
2022/11/14 07:34:37;;;;;;;34.78;17.17;;;;;;;;;;5085774;28;20048;-78
2022/11/14 07:37:03;;;;;;;33.08;16.40;;;;;;;;;;5104348;28;20170;-79
2022/11/14 07:39:30;;;;;;;32.72;16.70;;;;;;;;;;5102639;28;20136;-78
2022/11/14 07:41:56;;;;;;;29.23;15.23;;;;;;;;;;5105842;28;20051;-77
2022/11/14 07:44:23;;;;;;;31.27;16.45;;;;;;;;;;5102842;28;20120;-78
2022/11/14 07:46:50;;;;;;;30.00;15.65;;;;;;;;;;5104504;28;20136;-78
2022/11/14 07:49:17;;;;;;;32.55;15.60;;;;;;;;;;5102527;28;20466;-79
2022/11/14 07:51:43;;;;;;;30.38;16.17;;;;;;;;;;5090159;28;20124;-77
2022/11/14 07:54:10;;;;;;;31.08;16.08;;;;;;;;;;5093971;28;20048;-78
2022/11/14 07:56:37;;;;;;;27.23;14.02;;;;;;;;;;5115781;28;20059;-79
2022/11/14 07:59:04;;;;;;;32.42;15.80;;;;;;;;;;5088396;28;20139;-78
2022/11/14 08:01:30;;;;;;;30.35;16.35;;;;;;;;;;5098035;28;20130;-78
2022/11/14 08:03:57;;;;;;;29.25;15.63;;;;;;;;;;5098101;28;20058;-77
2022/11/14 08:06:23;;;;;;;31.60;15.00;;;;;;;;;;5103977;28;20108;-79
2022/11/14 08:08:49;;;;;;;33.33;14.57;;;;;;;;;;5102992;28;20036;-77
2022/11/14 08:11:46;;;;;;;29.23;15.70;;;;;;;;;;5101612;28;20081;-78
2022/11/14 08:14:02;;;;;;;26.33;14.30;;;;;;;;;;5099835;28;20107;-80
2022/11/14 08:16:28;;;;;;;28.00;14.20;;;;;;;;;;5099479;28;20135;-79
2022/11/14 08:18:55;;;;;;;28.92;14.48;;;;;;;;;;5102608;28;20104;-79
2022/11/14 08:21:21;;;;;;;25.05;13.52;;;;;;;;;;5082105;28;20377;-79
2022/11/14 08:23:47;;;;;;;25.05;13.77;;;;;;;;;;5097492;28;20116;-79
2022/11/14 08:26:14;;;;;;;26.23;14.30;;;;;;;;;;5086301;28;20062;-79
2022/11/14 08:28:40;;;;;;;27.48;14.23;;;;;;;;;;5106785;28;20070;-79
2022/11/14 08:31:08;;;;;;;22.65;13.23;;;;;;;;;;5101759;28;20050;-79
2022/11/14 08:33:35;;;;;;;24.60;14.18;;;;;;;;;;5098573;28;20104;-79
2022/11/14 08:36:02;;;;;;;25.65;13.35;;;;;;;;;;5100864;28;20055;-78
2022/11/14 08:38:29;;;;;;;23.92;13.13;;;;;;;;;;5098690;28;20068;-78
2022/11/14 08:40:57;;;;;;;25.35;12.75;;;;;;;;;;5108204;28;20047;-77
2022/11/14 08:43:24;;;;;;;27.30;12.30;;;;;;;;;;5095232;28;20049;-79
2022/11/14 08:45:50;;;;;;;22.42;12.82;;;;;;;;;;5099850;28;20117;-78
2022/11/14 08:48:17;;;;;;;24.83;12.90;;;;;;;;;;5098840;28;20043;-76
2022/11/14 08:50:43;;;;;;;23.58;12.70;;;;;;;;;;5077642;28;20368;-80
2022/11/14 08:53:09;;;;;;;24.52;13.90;;;;;;;;;;5076560;28;20075;-79
2022/11/14 08:55:36;;;;;;;22.55;13.10;;;;;;;;;;5100978;28;20071;-79
2022/11/14 08:58:03;;;;;;;22.33;12.75;;;;;;;;;;5095640;28;20349;-79
2022/11/14 09:00:29;;;;;;;22.65;12.90;;;;;;;;;;5101713;28;20057;-79
2022/11/14 09:02:56;;;;;;;24.23;13.00;;;;;;;;;;5100053;28;20055;-78
2022/11/14 09:05:22;;;;;;;22.13;11.85;;;;;;;;;;5085550;28;20040;-79
2022/11/14 09:07:49;;;;;;;22.17;12.68;;;;;;;;;;5096006;28;20143;-80
2022/11/14 09:10:15;;;;;;;24.58;12.35;;;;;;;;;;5090882;28;20412;-80
2022/11/14 09:12:42;;;;;;;21.92;12.25;;;;;;;;;;5094036;28;20488;-79
2022/11/14 09:15:08;;;;;;;19.92;11.38;;;;;;;;;;5094318;28;20062;-80
2022/11/14 09:17:34;;;;;;;17.75;11.13;;;;;;;;;;5093017;28;20060;-80
2022/11/14 09:20:01;;;;;;;17.42;10.48;;;;;;;;;;5092078;28;20074;-78
2022/11/14 09:22:27;;;;;;;19.58;11.75;;;;;;;;;;5072536;28;20051;-78
2022/11/14 09:24:54;;;;;;;20.13;12.02;;;;;;;;;;5092732;28;20051;-80
2022/11/14 09:27:20;;;;;;;20.67;11.57;;;;;;;;;;5090633;28;20040;-78
2022/11/14 09:29:46;;;;;;;19.77;11.07;;;;;;;;;;5073571;28;20055;-79
2022/11/14 09:32:13;;;;;;;19.48;11.43;;;;;;;;;;5091981;28;20495;-76
2022/11/14 09:34:43;;;;;;;16.50;11.15;;;;;;;;;;5091776;28;20048;-80
2022/11/14 09:37:10;;;;;;;18.60;11.35;;;;;;;;;;5075385;28;20508;-80
2022/11/14 09:39:39;;;;;;;19.38;11.15;;;;;;;;;;5093286;28;20527;-80
2022/11/14 09:42:21;;;;;;;19.83;10.45;;;;;;;;;;5092522;28;20083;-78
2022/11/14 09:44:52;;;;;;;17.48;10.35;;;;;;;;;;5072916;28;20468;-78
2022/11/14 09:47:22;;;;;;;17.63;10.05;;;;;;;;;;5091659;28;20040;-81
2022/11/14 09:49:50;;;;;;;16.95;9.07;;;;;;;;;;5092038;28;20170;-80
2022/11/14 09:52:19;;;;;;;16.80;9.25;;;;;;;;;;5093622;28;20047;-81
2022/11/14 09:54:50;;;;;;;17.63;9.05;;;;;;;;;;5091975;28;20062;-80
2022/11/14 09:57:18;;;;;;;15.60;9.38;;;;;;;;;;5091599;28;20055;-79
2022/11/14 09:59:45;;;;;;;17.08;9.48;;;;;;;;;;5091766;28;20107;-81
2022/11/14 10:02:18;;;;;;;13.77;9.35;;;;;;;;;;5095653;28;20579;-79
2022/11/14 10:04:48;;;;;;;15.27;8.43;;;;;;;;;;5081484;28;20047;-80
2022/11/14 10:07:33;;;;;;;12.27;8.13;;;;;;;;;;5098468;28;20044;-79
2022/11/14 10:10:20;;;;;;;13.17;7.50;;;;;;;;;;5070785;28;20045;-78
2022/11/14 10:12:55;;;;;;;12.15;8.10;;;;;;;;;;5037996;28;20040;-79
2022/11/14 10:15:30;;;;;;;12.48;8.05;;;;;;;;;;5085332;28;20044;-79
2022/11/14 10:18:05;;;;;;;14.43;8.60;;;;;;;;;;5091590;28;20524;-77
2022/11/14 10:20:34;;;;;;;11.27;7.78;;;;;;;;;;5090693;28;20363;-80
2022/11/14 10:23:19;;;;;;;13.05;8.20;;;;;;;;;;5090999;28;20178;-80
2022/11/14 10:25:46;;;;;;;10.95;7.55;;;;;;;;;;5075038;28;20109;-80
2022/11/14 10:28:32;;;;;;;11.93;8.00;;;;;;;;;;5090234;28;20527;-80
2022/11/14 10:30:58;;;;;;;13.52;7.97;;;;;;;;;;5074543;28;20074;-79
2022/11/14 10:33:25;;;;;;;13.10;8.15;;;;;;;;;;5072889;28;20420;-79
2022/11/14 10:36:00;;;;;;;12.25;7.70;;;;;;;;;;5091753;28;20466;-79
2022/11/14 10:38:26;;;;;;;;;;;;;;;;;;5091827;28;20315;-78
2022/11/14 10:40:57;;;;;;;12.25;8.02;;;;;;;;;;5073972;28;19920;-79
2022/11/14 10:43:49;;;;;;;11.18;7.50;;;;;;;;;;5091054;28;20048;-80
2022/11/14 10:46:18;;;;;;;12.35;7.40;;;;;;;;;;5088695;28;20052;-79
2022/11/14 10:48:46;;;;;;;10.80;7.57;;;;;;;;;;5090580;28;20430;-78
2022/11/14 10:51:21;;;;;;;11.45;7.40;;;;;;;;;;5091050;28;20048;-80
2022/11/14 10:53:47;;;;;;;10.65;7.53;;;;;;;;;;5089447;28;20127;-79
2022/11/14 10:56:14;;;;;;;12.57;8.25;;;;;;;;;;5090841;28;20044;-80
2022/11/14 10:58:41;;;;;;;10.68;7.60;;;;;;;;;;5070840;28;20516;-78
2022/11/14 11:01:33;;;;;;;12.55;7.88;;;;;;;;;;5092486;28;20052;-79
2022/11/14 11:04:00;;;;;;;;;;;;;;;;;;5089417;28;20438;-79
2022/11/14 11:06:27;;;;;;;12.65;7.47;;;;;;;;;;5081195;28;19920;-79
2022/11/14 11:11:40;;;;;;;9.98;7.28;;;;;;;;;;5090625;28;20098;-78
2022/11/14 11:14:15;;;;;;;13.40;7.63;;;;;;;;;;5088986;28;20052;-80
2022/11/14 11:16:41;;;;;;;12.70;7.80;;;;;;;;;;5090509;28;20067;-79
2022/11/14 11:19:14;;;;;;;10.05;7.13;;;;;;;;;;5090234;28;20439;-80
2022/11/14 11:21:47;;;;;;;11.75;7.50;;;;;;;;;;5092016;28;20063;-78
2022/11/14 11:24:29;;;;;;;10.50;7.45;;;;;;;;;;5074897;28;20048;-80
2022/11/14 11:27:13;;;;;;;11.73;7.38;;;;;;;;;;5092428;28;20074;-78
2022/11/14 11:29:39;;;;;;;10.55;7.00;;;;;;;;;;5091152;28;20048;-78
2022/11/14 11:32:07;;;;;;;11.30;7.25;;;;;;;;;;5075873;28;20043;-79
2022/11/14 11:34:33;;;;;;;11.02;7.22;;;;;;;;;;5093490;28;20059;-79
2022/11/14 11:37:29;;;;;;;10.50;7.15;;;;;;;;;;5094869;28;20060;-79
2022/11/14 11:39:57;;;;;;;10.18;7.00;;;;;;;;;;5092087;28;20113;-80
2022/11/14 11:42:35;;;;;;;10.43;7.45;;;;;;;;;;5111199;28;20103;-79
2022/11/14 11:45:22;;;;;;;9.43;6.45;;;;;;;;;;5093622;28;20055;-80
2022/11/14 11:48:00;;;;;;;11.75;7.85;;;;;;;;;;5091058;28;20067;-77
2022/11/14 11:50:27;;;;;;;10.05;6.63;;;;;;;;;;5080185;28;20045;-79
2022/11/14 11:53:02;;;;;;;10.23;6.80;;;;;;;;;;5089293;28;20058;-80
2022/11/14 11:55:33;;;;;;;11.32;7.38;;;;;;;;;;5089418;28;20048;-79
2022/11/14 11:58:01;;;;;;;11.13;6.72;;;;;;;;;;5078808;28;20434;-79
2022/11/14 12:00:28;;;;;;;10.38;6.82;;;;;;;;;;5090077;28;20109;-79
2022/11/14 12:02:55;;;;;;;9.73;6.70;;;;;;;;;;5065761;28;20087;-78
2022/11/14 12:05:30;;;;;;;10.48;6.53;;;;;;;;;;5089958;28;20051;-78
2022/11/14 12:08:05;;;;;;;10.82;7.30;;;;;;;;;;5076762;28;20055;-79
2022/11/14 12:10:36;;;;;;;9.27;6.68;;;;;;;;;;5072933;28;20052;-80
2022/11/14 12:13:24;;;;;;;11.73;7.38;;;;;;;;;;5086819;28;20062;-79
2022/11/14 12:16:09;;;;;;;8.63;6.03;;;;;;;;;;5069874;28;20053;-79
2022/11/14 12:18:50;;;;;;;11.20;6.82;;;;;;;;;;5073551;28;20122;-79
2022/11/14 12:21:20;;;;;;;11.93;6.55;;;;;;;;;;5073237;28;20064;-80
2022/11/14 12:24:05;;;;;;;9.40;6.38;;;;;;;;;;5071581;28;20068;-79
2022/11/14 12:26:50;;;;;;;9.63;6.90;;;;;;;;;;5073548;28;20048;-79
2022/11/14 12:29:34;;;;;;;11.20;7.05;;;;;;;;;;5072233;28;20287;-77
2022/11/14 12:32:04;;;;;;;9.02;6.53;;;;;;;;;;5073552;28;20149;-76
2022/11/14 12:34:32;;;;;;;10.52;7.05;;;;;;;;;;5081773;28;20050;-79
2022/11/14 12:36:58;;;;;;;11.40;7.30;;;;;;;;;;5097547;28;20075;-79
2022/11/14 12:39:26;;;;;;;11.68;7.35;;;;;;;;;;5093594;28;20389;-78
2022/11/14 12:42:03;;;;;;;9.85;6.57;;;;;;;;;;5092810;28;20044;-79
2022/11/14 12:44:29;;;;;;;15.38;6.88;;;;;;;;;;5091028;28;20055;-78
2022/11/14 12:47:05;;;;;;;11.35;6.75;;;;;;;;;;5092729;28;20058;-80
2022/11/14 12:49:46;;;;;;;12.80;7.15;;;;;;;;;;5091687;28;20070;-77
2022/11/14 12:52:31;;;;;;;11.10;7.00;;;;;;;;;;5092068;28;20046;-80
2022/11/14 12:54:58;;;;;;;13.57;7.67;;;;;;;;;;5092143;28;20052;-80
2022/11/14 12:57:46;;;;;;;12.25;6.97;;;;;;;;;;5073452;28;20048;-81
2022/11/14 13:00:13;;;;;;;12.90;7.32;;;;;;;;;;5097765;28;20051;-79
2022/11/14 13:02:48;;;;;;;13.90;6.72;;;;;;;;;;5090400;28;20135;-78
2022/11/14 13:05:22;;;;;;;11.43;6.97;;;;;;;;;;5091652;28;20510;-79
2022/11/14 13:08:07;;;;;;;12.13;6.70;;;;;;;;;;5091003;28;20044;-79
2022/11/14 13:10:38;;;;;;;11.50;6.83;;;;;;;;;;5091053;28;20048;-80
2022/11/14 13:22:13;;;;;;;15.30;7.88;;;;;;;;;;5028480;28;20092;-79
2022/11/14 13:24:56;;;;;;;13.32;7.82;;;;;;;;;;5058601;28;20047;-79
2022/11/14 13:27:40;;;;;;;15.55;8.30;;;;;;;;;;5090659;28;20051;-80
2022/11/14 13:31:05;;;;;;;15.68;7.72;;;;;;;;;;5091507;28;20147;-78
2022/11/14 13:33:43;;;;;;;14.02;7.60;;;;;;;;;;4989033;28;20046;-80
2022/11/14 13:36:15;;;;;;;14.93;8.00;;;;;;;;;;4974136;28;20052;-80
2022/11/14 13:38:55;;;;;;;12.77;7.43;;;;;;;;;;5049583;28;20048;-80
2022/11/14 13:42:00;;;;;;;13.95;8.18;;;;;;;;;;5093999;28;20054;-79
2022/11/14 13:44:27;;;;;;;13.73;7.93;;;;;;;;;;5010751;28;20049;-80
2022/11/14 13:47:12;;;;;;;14.45;8.20;;;;;;;;;;5012812;28;20045;-79
2022/11/14 13:49:54;;;;;;;16.92;9.18;;;;;;;;;;5062227;28;20048;-79
2022/11/14 13:52:20;;;;;;;16.35;8.73;;;;;;;;;;5086809;28;20165;-79
2022/11/14 13:54:47;;;;;;;14.80;7.93;;;;;;;;;;5107122;28;20138;-79
2022/11/14 13:57:14;;;;;;;16.02;7.93;;;;;;;;;;5105936;28;20112;-78
2022/11/14 13:59:42;;;;;;;14.45;7.95;;;;;;;;;;5109981;28;20047;-78
2022/11/14 14:02:09;;;;;;;14.73;7.72;;;;;;;;;;5098266;28;20075;-79
2022/11/14 14:04:44;;;;;;;14.43;8.07;;;;;;;;;;5094904;28;20077;-79
2022/11/14 14:07:19;;;;;;;13.63;7.53;;;;;;;;;;5106307;28;20058;-78
2022/11/14 14:09:46;;;;;;;15.45;8.75;;;;;;;;;;5109152;28;20137;-79
2022/11/14 14:12:27;;;;;;;15.02;8.65;;;;;;;;;;5106324;28;20127;-80
2022/11/14 14:15:02;;;;;;;16.17;8.43;;;;;;;;;;5107501;28;20048;-79
2022/11/14 14:17:31;;;;;;;17.20;8.40;;;;;;;;;;5105069;28;20047;-78
2022/11/14 14:20:17;;;;;;;15.52;8.70;;;;;;;;;;5102861;28;20044;-79
2022/11/14 14:23:02;;;;;;;16.88;8.38;;;;;;;;;;5078636;28;20048;-79
2022/11/14 14:25:49;;;;;;;17.73;9.67;;;;;;;;;;5105683;28;20040;-78
2022/11/14 14:28:31;;;;;;;17.20;9.15;;;;;;;;;;5082398;28;20044;-79
2022/11/14 14:31:02;;;;;;;17.10;9.55;;;;;;;;;;5086349;28;20082;-79
2022/11/14 14:33:37;;;;;;;17.52;9.93;;;;;;;;;;5088513;28;20111;-78
2022/11/14 14:36:04;;;;;;;18.75;10.23;;;;;;;;;;5106066;28;20063;-78
2022/11/14 14:38:31;;;;;;;19.08;10.73;;;;;;;;;;5107019;28;20036;-79
2022/11/14 14:40:57;;;;;;;18.67;10.48;;;;;;;;;;5090516;28;20452;-78
2022/11/14 14:43:30;;;;;;;18.23;9.57;;;;;;;;;;5088060;28;20059;-80
2022/11/14 14:45:57;;;;;;;24.42;10.65;;;;;;;;;;5091037;28;20044;-79